sensor_id;sensor_type;location;lat;lon;timestamp;pressure;altitude;pressure_sealevel;temperature;humidity
69836;BME280;57132;51.972;4.450;2023-03-23T00:02:31;100071.84;;;11.19;100.00
69836;BME280;57132;51.972;4.450;2023-03-23T00:05:02;100076.69;;;11.25;100.00
69836;BME280;57132;51.972;4.450;2023-03-23T00:07:29;100062.84;;;11.20;100.00
69836;BME280;57132;51.972;4.450;2023-03-23T00:09:55;100067.94;;;11.23;100.00
69836;BME280;57132;51.972;4.450;2023-03-23T00:12:26;100057.84;;;11.26;100.00
69836;BME280;57132;51.972;4.450;2023-03-23T00:15:07;100055.31;;;11.25;100.00
69836;BME280;57132;51.972;4.450;2023-03-23T00:17:38;100053.91;;;11.30;100.00
69836;BME280;57132;51.972;4.450;2023-03-23T00:20:05;100047.88;;;11.28;100.00
69836;BME280;57132;51.972;4.450;2023-03-23T00:22:32;100062.34;;;11.26;100.00
69836;BME280;57132;51.972;4.450;2023-03-23T00:25:05;100044.88;;;11.22;100.00
69836;BME280;57132;51.972;4.450;2023-03-23T00:27:31;100032.22;;;11.24;100.00
69836;BME280;57132;51.972;4.450;2023-03-23T00:29:56;100035.63;;;11.26;100.00
69836;BME280;57132;51.972;4.450;2023-03-23T00:32:23;100029.53;;;11.24;100.00
69836;BME280;57132;51.972;4.450;2023-03-23T00:34:55;100049.22;;;11.23;100.00
69836;BME280;57132;51.972;4.450;2023-03-23T00:37:21;100038.69;;;11.21;100.00
69836;BME280;57132;51.972;4.450;2023-03-23T00:39:46;100024.59;;;11.19;100.00
69836;BME280;57132;51.972;4.450;2023-03-23T00:42:13;100017.59;;;11.18;100.00
69836;BME280;57132;51.972;4.450;2023-03-23T00:44:39;100016.31;;;11.13;100.00
69836;BME280;57132;51.972;4.450;2023-03-23T00:47:05;100022.28;;;11.05;100.00
69836;BME280;57132;51.972;4.450;2023-03-23T00:49:34;100019.63;;;11.05;100.00
69836;BME280;57132;51.972;4.450;2023-03-23T00:52:03;100029.19;;;11.07;100.00
69836;BME280;57132;51.972;4.450;2023-03-23T00:54:28;100025.66;;;11.07;100.00
69836;BME280;57132;51.972;4.450;2023-03-23T00:56:54;100023.84;;;11.07;100.00
69836;BME280;57132;51.972;4.450;2023-03-23T00:59:20;100027.09;;;11.11;100.00
69836;BME280;57132;51.972;4.450;2023-03-23T01:01:46;100026.00;;;11.14;100.00
69836;BME280;57132;51.972;4.450;2023-03-23T01:04:12;100027.16;;;11.21;100.00
69836;BME280;57132;51.972;4.450;2023-03-23T01:06:39;100027.44;;;11.18;100.00
69836;BME280;57132;51.972;4.450;2023-03-23T01:09:07;100008.59;;;11.19;100.00
69836;BME280;57132;51.972;4.450;2023-03-23T01:11:33;100000.13;;;11.14;100.00
69836;BME280;57132;51.972;4.450;2023-03-23T01:13:58;99990.13;;;11.16;100.00
69836;BME280;57132;51.972;4.450;2023-03-23T01:16:24;99991.72;;;11.19;100.00
69836;BME280;57132;51.972;4.450;2023-03-23T01:18:49;100001.13;;;11.13;100.00
69836;BME280;57132;51.972;4.450;2023-03-23T01:21:17;99983.53;;;11.11;100.00
69836;BME280;57132;51.972;4.450;2023-03-23T01:23:43;99973.09;;;11.07;100.00
69836;BME280;57132;51.972;4.450;2023-03-23T01:26:21;100000.72;;;11.18;100.00
69836;BME280;57132;51.972;4.450;2023-03-23T01:28:47;99990.03;;;11.18;100.00
69836;BME280;57132;51.972;4.450;2023-03-23T01:31:17;100018.41;;;11.19;100.00
69836;BME280;57132;51.972;4.450;2023-03-23T01:33:44;99997.63;;;11.22;100.00
69836;BME280;57132;51.972;4.450;2023-03-23T01:36:12;99972.59;;;11.23;100.00
69836;BME280;57132;51.972;4.450;2023-03-23T01:38:38;99985.84;;;11.25;100.00
69836;BME280;57132;51.972;4.450;2023-03-23T01:41:04;99986.09;;;11.22;100.00
69836;BME280;57132;51.972;4.450;2023-03-23T01:43:30;99966.97;;;11.17;100.00
69836;BME280;57132;51.972;4.450;2023-03-23T01:45:57;99972.75;;;11.22;100.00
69836;BME280;57132;51.972;4.450;2023-03-23T01:48:32;99959.06;;;11.15;100.00
69836;BME280;57132;51.972;4.450;2023-03-23T01:53:37;99961.63;;;11.17;100.00
69836;BME280;57132;51.972;4.450;2023-03-23T01:56:04;99954.56;;;11.16;100.00
69836;BME280;57132;51.972;4.450;2023-03-23T01:58:32;99957.13;;;11.17;100.00
69836;BME280;57132;51.972;4.450;2023-03-23T02:01:05;99970.75;;;11.14;100.00
69836;BME280;57132;51.972;4.450;2023-03-23T02:03:34;99973.09;;;11.07;100.00
69836;BME280;57132;51.972;4.450;2023-03-23T02:06:01;99976.25;;;11.13;100.00
69836;BME280;57132;51.972;4.450;2023-03-23T02:08:28;99972.00;;;11.10;100.00
69836;BME280;57132;51.972;4.450;2023-03-23T02:10:55;99994.94;;;11.13;100.00
69836;BME280;57132;51.972;4.450;2023-03-23T02:13:21;99977.19;;;11.12;100.00
69836;BME280;57132;51.972;4.450;2023-03-23T02:15:54;99981.25;;;11.06;100.00
69836;BME280;57132;51.972;4.450;2023-03-23T02:21:39;99979.03;;;11.11;100.00
69836;BME280;57132;51.972;4.450;2023-03-23T02:24:26;99974.25;;;11.15;100.00
69836;BME280;57132;51.972;4.450;2023-03-23T02:27:08;99960.50;;;11.19;100.00
69836;BME280;57132;51.972;4.450;2023-03-23T02:32:45;99949.41;;;11.24;100.00
69836;BME280;57132;51.972;4.450;2023-03-23T02:35:28;99980.78;;;11.22;100.00
69836;BME280;57132;51.972;4.450;2023-03-23T02:38:02;99987.66;;;11.24;100.00
69836;BME280;57132;51.972;4.450;2023-03-23T02:40:40;99973.44;;;11.24;100.00
69836;BME280;57132;51.972;4.450;2023-03-23T02:43:09;99957.72;;;11.21;100.00
69836;BME280;57132;51.972;4.450;2023-03-23T02:45:37;99975.09;;;11.15;100.00
69836;BME280;57132;51.972;4.450;2023-03-23T02:48:05;99979.59;;;11.15;100.00
69836;BME280;57132;51.972;4.450;2023-03-23T02:50:32;99993.94;;;11.14;100.00
69836;BME280;57132;51.972;4.450;2023-03-23T02:52:59;99971.19;;;11.19;100.00
69836;BME280;57132;51.972;4.450;2023-03-23T02:55:27;99979.78;;;11.23;100.00
69836;BME280;57132;51.972;4.450;2023-03-23T02:57:54;99984.97;;;11.24;100.00
69836;BME280;57132;51.972;4.450;2023-03-23T03:00:23;99957.56;;;11.22;100.00
69836;BME280;57132;51.972;4.450;2023-03-23T03:02:50;99951.78;;;11.17;100.00
69836;BME280;57132;51.972;4.450;2023-03-23T03:08:15;99952.63;;;11.18;100.00
69836;BME280;57132;51.972;4.450;2023-03-23T03:16:05;99982.31;;;10.73;100.00
69836;BME280;57132;51.972;4.450;2023-03-23T03:18:44;99942.22;;;10.42;100.00
69836;BME280;57132;51.972;4.450;2023-03-23T03:21:14;99941.69;;;10.27;100.00
69836;BME280;57132;51.972;4.450;2023-03-23T03:23:43;99949.06;;;10.24;100.00
69836;BME280;57132;51.972;4.450;2023-03-23T03:26:12;99965.50;;;10.40;100.00
69836;BME280;57132;51.972;4.450;2023-03-23T03:28:43;99954.53;;;10.33;100.00
69836;BME280;57132;51.972;4.450;2023-03-23T03:31:13;99947.88;;;10.17;100.00
69836;BME280;57132;51.972;4.450;2023-03-23T03:33:40;99953.13;;;10.18;100.00
69836;BME280;57132;51.972;4.450;2023-03-23T03:36:06;99940.88;;;10.16;100.00
69836;BME280;57132;51.972;4.450;2023-03-23T03:38:45;99964.03;;;10.15;100.00
69836;BME280;57132;51.972;4.450;2023-03-23T03:41:11;99970.38;;;10.03;100.00
69836;BME280;57132;51.972;4.450;2023-03-23T03:43:36;99976.97;;;10.20;100.00
69836;BME280;57132;51.972;4.450;2023-03-23T03:46:02;99951.31;;;10.07;100.00
69836;BME280;57132;51.972;4.450;2023-03-23T03:48:27;99944.56;;;10.03;100.00
69836;BME280;57132;51.972;4.450;2023-03-23T03:50:53;99944.91;;;10.10;100.00
69836;BME280;57132;51.972;4.450;2023-03-23T03:53:21;99966.44;;;10.18;100.00
69836;BME280;57132;51.972;4.450;2023-03-23T03:55:47;99964.84;;;10.27;100.00
69836;BME280;57132;51.972;4.450;2023-03-23T03:58:15;99955.38;;;10.23;100.00
69836;BME280;57132;51.972;4.450;2023-03-23T04:00:40;99985.38;;;10.47;100.00
69836;BME280;57132;51.972;4.450;2023-03-23T04:03:06;99973.06;;;10.35;100.00
69836;BME280;57132;51.972;4.450;2023-03-23T04:05:32;99977.75;;;10.43;100.00
69836;BME280;57132;51.972;4.450;2023-03-23T04:07:58;99981.63;;;10.50;100.00
69836;BME280;57132;51.972;4.450;2023-03-23T04:10:27;100011.81;;;10.50;100.00
69836;BME280;57132;51.972;4.450;2023-03-23T04:12:54;99960.66;;;10.45;100.00
69836;BME280;57132;51.972;4.450;2023-03-23T04:15:20;99975.44;;;10.49;100.00
69836;BME280;57132;51.972;4.450;2023-03-23T04:17:46;99981.53;;;10.40;100.00
69836;BME280;57132;51.972;4.450;2023-03-23T04:20:12;100000.44;;;10.37;100.00
69836;BME280;57132;51.972;4.450;2023-03-23T04:22:45;99991.22;;;10.41;100.00
69836;BME280;57132;51.972;4.450;2023-03-23T04:25:14;100008.41;;;10.48;100.00
69836;BME280;57132;51.972;4.450;2023-03-23T04:27:40;99994.34;;;10.46;100.00
69836;BME280;57132;51.972;4.450;2023-03-23T04:30:09;100021.88;;;10.47;100.00
69836;BME280;57132;51.972;4.450;2023-03-23T04:32:35;100024.69;;;10.45;100.00
69836;BME280;57132;51.972;4.450;2023-03-23T04:35:01;100012.00;;;10.38;100.00
69836;BME280;57132;51.972;4.450;2023-03-23T04:37:27;100014.56;;;10.28;100.00
69836;BME280;57132;51.972;4.450;2023-03-23T04:39:57;100034.41;;;10.24;100.00
69836;BME280;57132;51.972;4.450;2023-03-23T04:42:30;100044.13;;;10.25;100.00
69836;BME280;57132;51.972;4.450;2023-03-23T04:44:57;100024.13;;;10.19;100.00
69836;BME280;57132;51.972;4.450;2023-03-23T04:47:24;100035.44;;;10.12;100.00
69836;BME280;57132;51.972;4.450;2023-03-23T04:49:51;100023.06;;;10.10;100.00
69836;BME280;57132;51.972;4.450;2023-03-23T04:52:17;100017.63;;;10.01;100.00
69836;BME280;57132;51.972;4.450;2023-03-23T04:54:42;100034.75;;;9.87;100.00
69836;BME280;57132;51.972;4.450;2023-03-23T04:57:08;100010.16;;;9.83;100.00
69836;BME280;57132;51.972;4.450;2023-03-23T04:59:34;100007.75;;;9.80;100.00
69836;BME280;57132;51.972;4.450;2023-03-23T05:01:59;100025.19;;;9.73;100.00
69836;BME280;57132;51.972;4.450;2023-03-23T05:04:24;100016.72;;;9.79;100.00
69836;BME280;57132;51.972;4.450;2023-03-23T05:06:51;100046.75;;;9.81;100.00
69836;BME280;57132;51.972;4.450;2023-03-23T05:09:17;100005.22;;;9.79;100.00
69836;BME280;57132;51.972;4.450;2023-03-23T05:11:43;100021.06;;;9.80;100.00
69836;BME280;57132;51.972;4.450;2023-03-23T05:14:08;100009.66;;;9.90;100.00
69836;BME280;57132;51.972;4.450;2023-03-23T05:16:35;100003.75;;;9.86;100.00
69836;BME280;57132;51.972;4.450;2023-03-23T05:19:01;100030.88;;;9.91;100.00
69836;BME280;57132;51.972;4.450;2023-03-23T05:21:27;100024.34;;;9.84;100.00
69836;BME280;57132;51.972;4.450;2023-03-23T05:23:53;100034.63;;;9.77;100.00
69836;BME280;57132;51.972;4.450;2023-03-23T05:26:22;100029.06;;;9.80;100.00
69836;BME280;57132;51.972;4.450;2023-03-23T05:28:54;100031.84;;;9.90;100.00
69836;BME280;57132;51.972;4.450;2023-03-23T05:31:21;100034.16;;;9.95;100.00
69836;BME280;57132;51.972;4.450;2023-03-23T05:33:47;100031.84;;;9.90;100.00
69836;BME280;57132;51.972;4.450;2023-03-23T05:36:12;100047.09;;;9.88;100.00
69836;BME280;57132;51.972;4.450;2023-03-23T05:38:41;100046.88;;;9.91;100.00
69836;BME280;57132;51.972;4.450;2023-03-23T05:41:13;100033.19;;;9.84;100.00
69836;BME280;57132;51.972;4.450;2023-03-23T05:43:39;100045.28;;;9.89;100.00
69836;BME280;57132;51.972;4.450;2023-03-23T05:46:05;100062.13;;;9.78;100.00
69836;BME280;57132;51.972;4.450;2023-03-23T05:48:32;100073.06;;;9.75;100.00
69836;BME280;57132;51.972;4.450;2023-03-23T05:50:58;100066.88;;;9.74;100.00
69836;BME280;57132;51.972;4.450;2023-03-23T05:53:23;100066.28;;;9.71;100.00
69836;BME280;57132;51.972;4.450;2023-03-23T05:55:49;100063.84;;;9.68;100.00
69836;BME280;57132;51.972;4.450;2023-03-23T05:58:14;100070.63;;;9.72;100.00
69836;BME280;57132;51.972;4.450;2023-03-23T06:00:40;100086.00;;;9.79;100.00
69836;BME280;57132;51.972;4.450;2023-03-23T06:03:06;100068.81;;;9.72;100.00
69836;BME280;57132;51.972;4.450;2023-03-23T06:05:32;100081.06;;;9.75;100.00
69836;BME280;57132;51.972;4.450;2023-03-23T06:07:58;100080.78;;;9.78;100.00
69836;BME280;57132;51.972;4.450;2023-03-23T06:10:24;100082.59;;;9.77;100.00
69836;BME280;57132;51.972;4.450;2023-03-23T06:12:50;100105.28;;;9.83;100.00
69836;BME280;57132;51.972;4.450;2023-03-23T06:15:17;100099.72;;;9.86;100.00
69836;BME280;57132;51.972;4.450;2023-03-23T06:17:43;100091.72;;;9.86;100.00
69836;BME280;57132;51.972;4.450;2023-03-23T06:20:09;100105.28;;;9.94;100.00
69836;BME280;57132;51.972;4.450;2023-03-23T06:22:39;100102.84;;;10.02;100.00
69836;BME280;57132;51.972;4.450;2023-03-23T06:25:09;100116.41;;;9.99;100.00
69836;BME280;57132;51.972;4.450;2023-03-23T06:27:38;100104.06;;;9.98;100.00
69836;BME280;57132;51.972;4.450;2023-03-23T06:30:04;100101.63;;;9.95;100.00
69836;BME280;57132;51.972;4.450;2023-03-23T06:32:31;100104.66;;;10.02;100.00
69836;BME280;57132;51.972;4.450;2023-03-23T06:34:57;100109.88;;;10.03;100.00
69836;BME280;57132;51.972;4.450;2023-03-23T06:37:23;100112.53;;;10.03;100.00
69836;BME280;57132;51.972;4.450;2023-03-23T06:39:50;100114.22;;;10.04;100.00
69836;BME280;57132;51.972;4.450;2023-03-23T06:42:17;100125.63;;;10.06;100.00
69836;BME280;57132;51.972;4.450;2023-03-23T06:44:43;100121.22;;;10.05;100.00
69836;BME280;57132;51.972;4.450;2023-03-23T06:47:08;100122.59;;;10.11;100.00
69836;BME280;57132;51.972;4.450;2023-03-23T06:49:34;100123.66;;;10.08;100.00
69836;BME280;57132;51.972;4.450;2023-03-23T06:52:00;100129.00;;;10.08;100.00
69836;BME280;57132;51.972;4.450;2023-03-23T06:54:27;100141.00;;;10.14;100.00
69836;BME280;57132;51.972;4.450;2023-03-23T06:56:52;100136.38;;;10.16;100.00
69836;BME280;57132;51.972;4.450;2023-03-23T06:59:17;100125.72;;;10.16;100.00
69836;BME280;57132;51.972;4.450;2023-03-23T07:01:44;100141.63;;;10.18;100.00
69836;BME280;57132;51.972;4.450;2023-03-23T07:04:11;100127.69;;;10.14;100.00
69836;BME280;57132;51.972;4.450;2023-03-23T07:06:37;100142.69;;;10.15;100.00
69836;BME280;57132;51.972;4.450;2023-03-23T07:09:03;100128.75;;;10.12;100.00
69836;BME280;57132;51.972;4.450;2023-03-23T07:11:29;100128.38;;;10.05;100.00
69836;BME280;57132;51.972;4.450;2023-03-23T07:13:55;100138.13;;;10.06;100.00
69836;BME280;57132;51.972;4.450;2023-03-23T07:16:20;100132.66;;;10.07;100.00
69836;BME280;57132;51.972;4.450;2023-03-23T07:18:46;100145.59;;;10.12;100.00
69836;BME280;57132;51.972;4.450;2023-03-23T07:21:11;100139.91;;;10.17;100.00
69836;BME280;57132;51.972;4.450;2023-03-23T07:23:37;100143.56;;;10.27;100.00
69836;BME280;57132;51.972;4.450;2023-03-23T07:26:03;100143.78;;;10.24;100.00
69836;BME280;57132;51.972;4.450;2023-03-23T07:28:29;100153.38;;;10.15;100.00
69836;BME280;57132;51.972;4.450;2023-03-23T07:30:55;100134.72;;;10.04;100.00
69836;BME280;57132;51.972;4.450;2023-03-23T07:33:20;100145.38;;;9.93;100.00
69836;BME280;57132;51.972;4.450;2023-03-23T07:35:46;100141.72;;;9.94;100.00
69836;BME280;57132;51.972;4.450;2023-03-23T07:38:13;100139.66;;;10.20;100.00
69836;BME280;57132;51.972;4.450;2023-03-23T07:40:39;100158.94;;;10.46;100.00
69836;BME280;57132;51.972;4.450;2023-03-23T07:43:05;100144.03;;;10.75;100.00
69836;BME280;57132;51.972;4.450;2023-03-23T07:45:31;100142.84;;;11.00;100.00
69836;BME280;57132;51.972;4.450;2023-03-23T07:47:57;100164.78;;;11.04;100.00
69836;BME280;57132;51.972;4.450;2023-03-23T07:50:22;100160.50;;;10.80;100.00
69836;BME280;57132;51.972;4.450;2023-03-23T07:52:50;100142.03;;;10.56;100.00
69836;BME280;57132;51.972;4.450;2023-03-23T07:55:17;100149.59;;;10.40;100.00
69836;BME280;57132;51.972;4.450;2023-03-23T07:57:44;100179.81;;;10.29;100.00
69836;BME280;57132;51.972;4.450;2023-03-23T08:00:11;100167.44;;;10.28;100.00
69836;BME280;57132;51.972;4.450;2023-03-23T08:02:48;100176.78;;;10.34;100.00
69836;BME280;57132;51.972;4.450;2023-03-23T08:05:15;100176.41;;;10.39;100.00
69836;BME280;57132;51.972;4.450;2023-03-23T08:07:42;100189.75;;;10.39;100.00
69836;BME280;57132;51.972;4.450;2023-03-23T08:10:09;100188.63;;;10.52;100.00
69836;BME280;57132;51.972;4.450;2023-03-23T08:12:39;100192.25;;;10.51;100.00
69836;BME280;57132;51.972;4.450;2023-03-23T08:15:06;100182.09;;;10.45;100.00
69836;BME280;57132;51.972;4.450;2023-03-23T08:17:32;100185.22;;;10.62;100.00
69836;BME280;57132;51.972;4.450;2023-03-23T08:19:59;100191.06;;;10.88;100.00
69836;BME280;57132;51.972;4.450;2023-03-23T08:22:25;100181.22;;;10.99;100.00
69836;BME280;57132;51.972;4.450;2023-03-23T08:24:51;100201.59;;;11.00;100.00
69836;BME280;57132;51.972;4.450;2023-03-23T08:27:17;100189.59;;;10.95;100.00
69836;BME280;57132;51.972;4.450;2023-03-23T08:29:44;100190.84;;;10.91;100.00
69836;BME280;57132;51.972;4.450;2023-03-23T08:32:11;100205.06;;;10.80;100.00
69836;BME280;57132;51.972;4.450;2023-03-23T08:34:36;100218.34;;;11.02;100.00
69836;BME280;57132;51.972;4.450;2023-03-23T08:37:02;100202.50;;;11.43;100.00
69836;BME280;57132;51.972;4.450;2023-03-23T08:39:28;100216.50;;;11.35;100.00
69836;BME280;57132;51.972;4.450;2023-03-23T08:41:55;100220.88;;;11.78;100.00
69836;BME280;57132;51.972;4.450;2023-03-23T08:44:20;100220.19;;;11.76;100.00
69836;BME280;57132;51.972;4.450;2023-03-23T08:46:46;100219.84;;;11.69;100.00
69836;BME280;57132;51.972;4.450;2023-03-23T08:49:11;100225.22;;;11.90;100.00
69836;BME280;57132;51.972;4.450;2023-03-23T08:51:36;100239.53;;;12.41;100.00
69836;BME280;57132;51.972;4.450;2023-03-23T08:54:02;100228.97;;;12.09;100.00
69836;BME280;57132;51.972;4.450;2023-03-23T08:56:28;100208.63;;;12.27;100.00
69836;BME280;57132;51.972;4.450;2023-03-23T08:58:53;100208.41;;;12.49;100.00
69836;BME280;57132;51.972;4.450;2023-03-23T09:01:19;100220.94;;;12.99;100.00
69836;BME280;57132;51.972;4.450;2023-03-23T09:03:45;100207.13;;;13.13;100.00
69836;BME280;57132;51.972;4.450;2023-03-23T09:06:10;100205.25;;;12.75;100.00
69836;BME280;57132;51.972;4.450;2023-03-23T09:08:38;100195.34;;;13.92;100.00
69836;BME280;57132;51.972;4.450;2023-03-23T09:11:05;100206.28;;;14.45;100.00
69836;BME280;57132;51.972;4.450;2023-03-23T09:13:32;100208.69;;;13.45;100.00
69836;BME280;57132;51.972;4.450;2023-03-23T09:15:58;100204.16;;;13.65;100.00
69836;BME280;57132;51.972;4.450;2023-03-23T09:18:23;100216.06;;;13.99;100.00
69836;BME280;57132;51.972;4.450;2023-03-23T09:20:50;100213.44;;;14.27;100.00
69836;BME280;57132;51.972;4.450;2023-03-23T09:23:16;100217.72;;;15.20;98.05
69836;BME280;57132;51.972;4.450;2023-03-23T09:25:42;100272.44;;;14.37;95.40
69836;BME280;57132;51.972;4.450;2023-03-23T09:28:08;100215.31;;;14.82;96.30
69836;BME280;57132;51.972;4.450;2023-03-23T09:30:35;100222.44;;;14.36;99.15
69836;BME280;57132;51.972;4.450;2023-03-23T09:33:02;100227.56;;;13.72;100.00
69836;BME280;57132;51.972;4.450;2023-03-23T09:35:29;100230.00;;;13.27;100.00
69836;BME280;57132;51.972;4.450;2023-03-23T09:37:55;100219.38;;;14.21;100.00
69836;BME280;57132;51.972;4.450;2023-03-23T09:40:23;100251.25;;;13.96;100.00
69836;BME280;57132;51.972;4.450;2023-03-23T09:48:49;100238.19;;;13.25;100.00
69836;BME280;57132;51.972;4.450;2023-03-23T09:51:52;100257.03;;;13.04;100.00
69836;BME280;57132;51.972;4.450;2023-03-23T09:56:50;100281.59;;;13.19;100.00
69836;BME280;57132;51.972;4.450;2023-03-23T09:59:38;100282.28;;;12.62;100.00
69836;BME280;57132;51.972;4.450;2023-03-23T10:02:15;100255.72;;;12.39;100.00
69836;BME280;57132;51.972;4.450;2023-03-23T10:04:49;100266.38;;;12.29;100.00
69836;BME280;57132;51.972;4.450;2023-03-23T10:07:18;100265.94;;;13.15;100.00
69836;BME280;57132;51.972;4.450;2023-03-23T10:09:45;100267.03;;;12.93;100.00
69836;BME280;57132;51.972;4.450;2023-03-23T10:17:33;100269.50;;;13.25;100.00
69836;BME280;57132;51.972;4.450;2023-03-23T10:22:47;100283.94;;;12.84;100.00
69836;BME280;57132;51.972;4.450;2023-03-23T10:25:19;100275.16;;;12.82;100.00
69836;BME280;57132;51.972;4.450;2023-03-23T10:28:11;100302.78;;;12.72;100.00
69836;BME280;57132;51.972;4.450;2023-03-23T10:30:55;100254.44;;;12.34;100.00
69836;BME280;57132;51.972;4.450;2023-03-23T10:33:38;100262.50;;;12.84;100.00
69836;BME280;57132;51.972;4.450;2023-03-23T10:36:14;100257.56;;;12.79;100.00
69836;BME280;57132;51.972;4.450;2023-03-23T10:38:45;100254.72;;;12.80;100.00
69836;BME280;57132;51.972;4.450;2023-03-23T10:41:15;100261.09;;;12.79;100.00
69836;BME280;57132;51.972;4.450;2023-03-23T10:43:42;100288.63;;;12.30;100.00
69836;BME280;57132;51.972;4.450;2023-03-23T10:46:36;100281.63;;;12.39;100.00
69836;BME280;57132;51.972;4.450;2023-03-23T10:49:08;100270.28;;;12.16;100.00
69836;BME280;57132;51.972;4.450;2023-03-23T10:51:40;100297.00;;;12.77;100.00
69836;BME280;57132;51.972;4.450;2023-03-23T10:54:07;100280.25;;;12.75;100.00
69836;BME280;57132;51.972;4.450;2023-03-23T10:56:44;100271.59;;;12.62;100.00
69836;BME280;57132;51.972;4.450;2023-03-23T10:59:26;100252.25;;;12.58;100.00
69836;BME280;57132;51.972;4.450;2023-03-23T11:01:54;100260.47;;;13.45;100.00
69836;BME280;57132;51.972;4.450;2023-03-23T11:04:22;100252.25;;;14.33;97.92
69836;BME280;57132;51.972;4.450;2023-03-23T11:06:51;100290.72;;;14.23;92.38
69836;BME280;57132;51.972;4.450;2023-03-23T11:09:20;100251.41;;;14.32;97.90
69836;BME280;57132;51.972;4.450;2023-03-23T11:11:54;100266.47;;;15.61;92.00
69836;BME280;57132;51.972;4.450;2023-03-23T11:14:29;100292.38;;;15.27;91.12
69836;BME280;57132;51.972;4.450;2023-03-23T11:16:56;100271.00;;;14.80;88.04
69836;BME280;57132;51.972;4.450;2023-03-23T11:19:25;100289.84;;;13.66;94.01
69836;BME280;57132;51.972;4.450;2023-03-23T11:21:53;100283.06;;;13.52;95.45
69836;BME280;57132;51.972;4.450;2023-03-23T11:24:22;100256.47;;;13.88;97.02
69836;BME280;57132;51.972;4.450;2023-03-23T11:26:49;100260.25;;;14.05;96.20
69836;BME280;57132;51.972;4.450;2023-03-23T11:29:24;100254.91;;;13.95;98.50
69836;BME280;57132;51.972;4.450;2023-03-23T11:31:53;100263.06;;;14.13;97.02
69836;BME280;57132;51.972;4.450;2023-03-23T11:34:34;100252.69;;;14.28;96.86
69836;BME280;57132;51.972;4.450;2023-03-23T11:37:05;100251.53;;;14.95;93.51
69836;BME280;57132;51.972;4.450;2023-03-23T11:39:34;100252.91;;;14.82;89.48
69836;BME280;57132;51.972;4.450;2023-03-23T11:42:02;100259.41;;;15.07;87.82
69836;BME280;57132;51.972;4.450;2023-03-23T11:44:42;100283.13;;;14.66;90.23
69836;BME280;57132;51.972;4.450;2023-03-23T11:47:36;100259.91;;;14.65;95.02
69836;BME280;57132;51.972;4.450;2023-03-23T11:50:20;100261.56;;;13.91;94.89
69836;BME280;57132;51.972;4.450;2023-03-23T11:53:15;100269.22;;;13.38;98.82
69836;BME280;57132;51.972;4.450;2023-03-23T11:58:17;100260.34;;;13.27;100.00
69836;BME280;57132;51.972;4.450;2023-03-23T12:00:51;100267.81;;;13.24;96.27
69836;BME280;57132;51.972;4.450;2023-03-23T12:03:18;100302.66;;;13.34;97.21
69836;BME280;57132;51.972;4.450;2023-03-23T12:05:49;100285.47;;;13.56;94.38
69836;BME280;57132;51.972;4.450;2023-03-23T12:13:51;100300.13;;;14.47;89.09
69836;BME280;57132;51.972;4.450;2023-03-23T12:16:52;100284.59;;;14.78;89.33
69836;BME280;57132;51.972;4.450;2023-03-23T12:30:35;100253.13;;;13.38;100.00
69836;BME280;57132;51.972;4.450;2023-03-23T12:38:41;100252.81;;;13.70;97.89
69836;BME280;57132;51.972;4.450;2023-03-23T12:44:02;100240.69;;;13.66;99.48
69836;BME280;57132;51.972;4.450;2023-03-23T12:57:01;100260.19;;;13.29;100.00
69836;BME280;57132;51.972;4.450;2023-03-23T12:59:33;100256.94;;;13.64;100.00
69836;BME280;57132;51.972;4.450;2023-03-23T13:02:16;100274.16;;;13.33;98.18
69836;BME280;57132;51.972;4.450;2023-03-23T13:04:48;100281.63;;;13.29;99.48
69836;BME280;57132;51.972;4.450;2023-03-23T13:07:24;100280.50;;;13.61;98.18
69836;BME280;57132;51.972;4.450;2023-03-23T13:12:17;100261.16;;;13.86;96.98
69836;BME280;57132;51.972;4.450;2023-03-23T13:22:56;100268.78;;;13.91;95.04
69836;BME280;57132;51.972;4.450;2023-03-23T13:25:40;100269.03;;;14.54;91.52
69836;BME280;57132;51.972;4.450;2023-03-23T13:28:14;100267.88;;;14.84;88.95
69836;BME280;57132;51.972;4.450;2023-03-23T13:30:41;100271.78;;;15.17;89.90
69836;BME280;57132;51.972;4.450;2023-03-23T13:33:11;100278.28;;;14.69;88.97
69836;BME280;57132;51.972;4.450;2023-03-23T13:35:40;100278.44;;;14.21;89.24
69836;BME280;57132;51.972;4.450;2023-03-23T13:38:26;100267.28;;;14.25;92.06
69836;BME280;57132;51.972;4.450;2023-03-23T13:40:54;100276.00;;;14.27;93.52
69836;BME280;57132;51.972;4.450;2023-03-23T13:43:33;100272.59;;;13.78;94.56
69836;BME280;57132;51.972;4.450;2023-03-23T13:48:51;100268.06;;;13.69;98.92
69836;BME280;57132;51.972;4.450;2023-03-23T13:51:36;100256.19;;;13.91;94.52
69836;BME280;57132;51.972;4.450;2023-03-23T13:54:39;100235.31;;;13.66;91.26
69836;BME280;57132;51.972;4.450;2023-03-23T13:57:26;100242.94;;;13.80;93.51
69836;BME280;57132;51.972;4.450;2023-03-23T13:59:59;100252.22;;;13.95;94.68
69836;BME280;57132;51.972;4.450;2023-03-23T14:02:39;100252.13;;;14.34;91.19
69836;BME280;57132;51.972;4.450;2023-03-23T14:05:31;100261.34;;;14.22;89.74
69836;BME280;57132;51.972;4.450;2023-03-23T14:10:31;100250.88;;;13.52;93.51
69836;BME280;57132;51.972;4.450;2023-03-23T14:12:59;100274.69;;;13.17;96.96
69836;BME280;57132;51.972;4.450;2023-03-23T14:15:30;100274.78;;;13.05;97.41
69836;BME280;57132;51.972;4.450;2023-03-23T14:17:56;100229.16;;;13.26;99.55
69836;BME280;57132;51.972;4.450;2023-03-23T14:20:29;100246.50;;;13.61;98.10
69836;BME280;57132;51.972;4.450;2023-03-23T14:22:57;100213.03;;;13.75;96.73
69836;BME280;57132;51.972;4.450;2023-03-23T14:25:27;100209.25;;;14.15;95.21